Time;durP1;ratioP1;P1;durP2;ratioP2;P2;SDS_P1;SDS_P2;PMS_P1;PMS_P2;Temp;Humidity;BMP_temperature;BMP_pressure;BME280_temperature;BME280_humidity;BME280_pressure;Samples;Min_cycle;Max_cycle;Signal;HPM_P1;HPM_P2
2022/03/21 00:00:27;;;;;;;13.1;7.799999;;;;;;;0.89;38.06152;96427.7;;;;
2022/03/21 00:01:28;;;;;;;13.1;7.799999;;;;;;;0.89;38.06152;96427.7;;;;
2022/03/21 00:02:29;;;;;;;13.1;7.799999;;;;;;;0.89;38.06152;96427.7;;;;
2022/03/21 00:03:29;;;;;;;13.1;7.799999;;;;;;;0.89;38.06152;96427.7;;;;
2022/03/21 00:04:30;;;;;;;13.1;7.799999;;;;;;;0.89;38.06152;96427.7;;;;
2022/03/21 00:05:31;;;;;;;13.7;7.849999;;;;;;;0.63;38.31348;96430.2;;;;
2022/03/21 00:06:31;;;;;;;13.7;7.849999;;;;;;;0.63;38.31348;96430.2;;;;
2022/03/21 00:07:32;;;;;;;13.7;7.849999;;;;;;;0.63;38.31348;96430.2;;;;
2022/03/21 00:08:32;;;;;;;13.7;7.849999;;;;;;;0.63;38.31348;96430.2;;;;
2022/03/21 00:09:33;;;;;;;13.7;7.849999;;;;;;;0.63;38.31348;96430.2;;;;
2022/03/21 00:10:34;;;;;;;13.7;7.849999;;;;;;;0.63;38.31348;96430.2;;;;
2022/03/21 00:11:34;;;;;;;13.7;7.849999;;;;;;;0.63;38.31348;96430.2;;;;
2022/03/21 00:12:35;;;;;;;13.7;7.849999;;;;;;;0.63;38.31348;96430.2;;;;
2022/03/21 00:13:36;;;;;;;13.7;7.849999;;;;;;;0.63;38.31348;96430.2;;;;
2022/03/21 00:14:36;;;;;;;13.7;7.849999;;;;;;;0.63;38.31348;96430.2;;;;
2022/03/21 00:15:37;;;;;;;13.7;7.849999;;;;;;;0.63;38.31348;96430.2;;;;
2022/03/21 00:16:37;;;;;;;11.1;7.900001;;;;;;;0.46;38.50879;96428.83;;;;
2022/03/21 00:17:40;;;;;;;11.1;7.900001;;;;;;;0.46;38.50879;96428.83;;;;
2022/03/21 00:18:41;;;;;;;11.1;7.900001;;;;;;;0.46;38.50879;96428.83;;;;
2022/03/21 00:19:42;;;;;;;11.1;7.900001;;;;;;;0.46;38.50879;96428.83;;;;
2022/03/21 00:20:42;;;;;;;11.1;7.900001;;;;;;;0.46;38.50879;96428.83;;;;
2022/03/21 00:21:45;;;;;;;11.1;7.900001;;;;;;;0.46;38.50879;96428.83;;;;
2022/03/21 00:22:45;;;;;;;11.1;7.900001;;;;;;;0.46;38.50879;96428.83;;;;
2022/03/21 00:23:47;;;;;;;11.1;7.900001;;;;;;;0.46;38.50879;96428.83;;;;
2022/03/21 00:24:49;;;;;;;11.1;7.900001;;;;;;;0.46;38.50879;96428.83;;;;
2022/03/21 00:25:50;;;;;;;11.1;7.900001;;;;;;;0.46;38.50879;96428.83;;;;
2022/03/21 00:26:51;;;;;;;11.2;7.5;;;;;;;0.4;38.66309;96434.65;;;;
2022/03/21 00:27:52;;;;;;;11.2;7.5;;;;;;;0.4;38.66309;96434.65;;;;
2022/03/21 00:28:52;;;;;;;11.2;7.5;;;;;;;0.4;38.66309;96434.65;;;;
2022/03/21 00:29:53;;;;;;;11.2;7.5;;;;;;;0.4;38.66309;96434.65;;;;
2022/03/21 00:30:55;;;;;;;11.2;7.5;;;;;;;0.4;38.66309;96434.65;;;;
2022/03/21 00:31:57;;;;;;;11.2;7.5;;;;;;;0.4;38.66309;96434.65;;;;
2022/03/21 00:32:57;;;;;;;11.2;7.5;;;;;;;0.4;38.66309;96434.65;;;;
2022/03/21 00:33:58;;;;;;;11.2;7.5;;;;;;;0.4;38.66309;96434.65;;;;
2022/03/21 00:34:58;;;;;;;11.2;7.5;;;;;;;0.4;38.66309;96434.65;;;;
2022/03/21 00:35:59;;;;;;;11.2;7.5;;;;;;;0.4;38.66309;96434.65;;;;
2022/03/21 00:37:00;;;;;;;11.2;7.5;;;;;;;0.4;38.66309;96434.65;;;;
2022/03/21 00:38:00;;;;;;;12.05;7.55;;;;;;;0.34;38.79395;96431.33;;;;
2022/03/21 00:39:01;;;;;;;12.05;7.55;;;;;;;0.34;38.79395;96431.33;;;;
2022/03/21 00:40:03;;;;;;;12.05;7.55;;;;;;;0.34;38.79395;96431.33;;;;
2022/03/21 00:41:06;;;;;;;12.05;7.55;;;;;;;0.34;38.79395;96431.33;;;;
2022/03/21 00:42:09;;;;;;;12.05;7.55;;;;;;;0.34;38.79395;96431.33;;;;
2022/03/21 00:43:09;;;;;;;12.05;7.55;;;;;;;0.34;38.79395;96431.33;;;;
2022/03/21 00:44:10;;;;;;;12.05;7.55;;;;;;;0.34;38.79395;96431.33;;;;
2022/03/21 00:45:11;;;;;;;12.05;7.55;;;;;;;0.34;38.79395;96431.33;;;;
2022/03/21 00:46:15;;;;;;;12.05;7.55;;;;;;;0.34;38.79395;96431.33;;;;
2022/03/21 00:47:16;;;;;;;12.05;7.55;;;;;;;0.34;38.79395;96431.33;;;;
2022/03/21 00:48:17;;;;;;;11.85;7.5;;;;;;;0.15;39.06152;96438.44;;;;
2022/03/21 00:49:18;;;;;;;11.85;7.5;;;;;;;0.15;39.06152;96438.44;;;;
2022/03/21 00:50:18;;;;;;;11.85;7.5;;;;;;;0.15;39.06152;96438.44;;;;
2022/03/21 00:51:22;;;;;;;11.85;7.5;;;;;;;0.15;39.06152;96438.44;;;;
2022/03/21 00:52:23;;;;;;;11.85;7.5;;;;;;;0.15;39.06152;96438.44;;;;
2022/03/21 00:53:23;;;;;;;11.85;7.5;;;;;;;0.15;39.06152;96438.44;;;;
2022/03/21 00:54:24;;;;;;;11.85;7.5;;;;;;;0.15;39.06152;96438.44;;;;
2022/03/21 00:55:26;;;;;;;11.85;7.5;;;;;;;0.15;39.06152;96438.44;;;;
2022/03/21 00:56:27;;;;;;;11.85;7.5;;;;;;;0.15;39.06152;96438.44;;;;
2022/03/21 00:57:27;;;;;;;11.85;7.5;;;;;;;0.15;39.06152;96438.44;;;;
2022/03/21 00:58:28;;;;;;;11.85;7.5;;;;;;;0.15;39.06152;96438.44;;;;
2022/03/21 00:59:28;;;;;;;10.9;7.249999;;;;;;;-0.14;39.34082;96433.2;;;;
2022/03/21 01:00:29;;;;;;;10.9;7.249999;;;;;;;-0.14;39.34082;96433.2;;;;
2022/03/21 01:01:32;;;;;;;10.9;7.249999;;;;;;;-0.14;39.34082;96433.2;;;;
2022/03/21 01:02:32;;;;;;;10.9;7.249999;;;;;;;-0.14;39.34082;96433.2;;;;
2022/03/21 01:03:33;;;;;;;10.9;7.249999;;;;;;;-0.14;39.34082;96433.2;;;;
2022/03/21 01:04:33;;;;;;;10.9;7.249999;;;;;;;-0.14;39.34082;96433.2;;;;
2022/03/21 01:05:34;;;;;;;10.9;7.249999;;;;;;;-0.14;39.34082;96433.2;;;;
2022/03/21 01:06:35;;;;;;;10.9;7.249999;;;;;;;-0.14;39.34082;96433.2;;;;
2022/03/21 01:07:35;;;;;;;10.9;7.249999;;;;;;;-0.14;39.34082;96433.2;;;;
2022/03/21 01:08:38;;;;;;;10.9;7.249999;;;;;;;-0.14;39.34082;96433.2;;;;
2022/03/21 01:09:39;;;;;;;14;7.7;;;;;;;-0.3;39.5791;96438.67;;;;
2022/03/21 01:10:39;;;;;;;14;7.7;;;;;;;-0.3;39.5791;96438.67;;;;
2022/03/21 01:11:40;;;;;;;14;7.7;;;;;;;-0.3;39.5791;96438.67;;;;
2022/03/21 01:12:40;;;;;;;14;7.7;;;;;;;-0.3;39.5791;96438.67;;;;
2022/03/21 01:13:42;;;;;;;14;7.7;;;;;;;-0.3;39.5791;96438.67;;;;
2022/03/21 01:14:42;;;;;;;14;7.7;;;;;;;-0.3;39.5791;96438.67;;;;
2022/03/21 01:15:43;;;;;;;14;7.7;;;;;;;-0.3;39.5791;96438.67;;;;
2022/03/21 01:16:44;;;;;;;14;7.7;;;;;;;-0.3;39.5791;96438.67;;;;
2022/03/21 01:17:44;;;;;;;14;7.7;;;;;;;-0.3;39.5791;96438.67;;;;
2022/03/21 01:18:46;;;;;;;14;7.7;;;;;;;-0.3;39.5791;96438.67;;;;
2022/03/21 01:19:46;;;;;;;14;7.7;;;;;;;-0.3;39.5791;96438.67;;;;
2022/03/21 01:20:47;;;;;;;11.8;7.649999;;;;;;;-0.41;39.70508;96426.87;;;;
2022/03/21 01:21:47;;;;;;;11.8;7.649999;;;;;;;-0.41;39.70508;96426.87;;;;
2022/03/21 01:22:48;;;;;;;11.8;7.649999;;;;;;;-0.41;39.70508;96426.87;;;;
2022/03/21 01:23:49;;;;;;;11.8;7.649999;;;;;;;-0.41;39.70508;96426.87;;;;
2022/03/21 01:24:50;;;;;;;11.8;7.649999;;;;;;;-0.41;39.70508;96426.87;;;;
2022/03/21 01:25:50;;;;;;;11.8;7.649999;;;;;;;-0.41;39.70508;96426.87;;;;
2022/03/21 01:26:51;;;;;;;11.8;7.649999;;;;;;;-0.41;39.70508;96426.87;;;;
2022/03/21 01:27:52;;;;;;;11.8;7.649999;;;;;;;-0.41;39.70508;96426.87;;;;
2022/03/21 01:28:52;;;;;;;11.8;7.649999;;;;;;;-0.41;39.70508;96426.87;;;;
2022/03/21 01:29:53;;;;;;;11.8;7.649999;;;;;;;-0.41;39.70508;96426.87;;;;
2022/03/21 01:30:53;;;;;;;11.4;7.7;;;;;;;-0.62;39.93848;96432.4;;;;
2022/03/21 01:31:54;;;;;;;11.4;7.7;;;;;;;-0.62;39.93848;96432.4;;;;
2022/03/21 01:32:54;;;;;;;11.4;7.7;;;;;;;-0.62;39.93848;96432.4;;;;
2022/03/21 01:33:55;;;;;;;11.4;7.7;;;;;;;-0.62;39.93848;96432.4;;;;
2022/03/21 01:34:55;;;;;;;11.4;7.7;;;;;;;-0.62;39.93848;96432.4;;;;
2022/03/21 01:35:56;;;;;;;11.4;7.7;;;;;;;-0.62;39.93848;96432.4;;;;
2022/03/21 01:36:56;;;;;;;11.4;7.7;;;;;;;-0.62;39.93848;96432.4;;;;
2022/03/21 01:37:57;;;;;;;11.4;7.7;;;;;;;-0.62;39.93848;96432.4;;;;
2022/03/21 01:38:57;;;;;;;11.4;7.7;;;;;;;-0.62;39.93848;96432.4;;;;
2022/03/21 01:39:58;;;;;;;11.4;7.7;;;;;;;-0.62;39.93848;96432.4;;;;
2022/03/21 01:40:58;;;;;;;11.4;7.7;;;;;;;-0.62;39.93848;96432.4;;;;
2022/03/21 01:41:59;;;;;;;11.7;8.299998;;;;;;;-0.84;40.22266;96426.05;;;;
2022/03/21 01:43:00;;;;;;;11.7;8.299998;;;;;;;-0.84;40.22266;96426.05;;;;
2022/03/21 01:44:00;;;;;;;11.7;8.299998;;;;;;;-0.84;40.22266;96426.05;;;;
2022/03/21 01:45:03;;;;;;;11.7;8.299998;;;;;;;-0.84;40.22266;96426.05;;;;
2022/03/21 01:46:04;;;;;;;11.7;8.299998;;;;;;;-0.84;40.22266;96426.05;;;;
2022/03/21 01:47:05;;;;;;;11.7;8.299998;;;;;;;-0.84;40.22266;96426.05;;;;
2022/03/21 01:48:06;;;;;;;11.7;8.299998;;;;;;;-0.84;40.22266;96426.05;;;;
2022/03/21 01:49:06;;;;;;;11.7;8.299998;;;;;;;-0.84;40.22266;96426.05;;;;
2022/03/21 01:50:09;;;;;;;11.7;8.299998;;;;;;;-0.84;40.22266;96426.05;;;;
2022/03/21 01:51:12;;;;;;;11.7;8.299998;;;;;;;-0.84;40.22266;96426.05;;;;
2022/03/21 01:52:12;;;;;;;13.6;8.200002;;;;;;;-1.02;40.47852;96440.94;;;;
2022/03/21 01:58:25;;;;;;;13.6;8.200002;;;;;;;-1.02;40.47852;96440.94;;;;
2022/03/21 01:59:26;;;;;;;13.6;8.200002;;;;;;;-1.02;40.47852;96440.94;;;;
2022/03/21 02:00:27;;;;;;;13.6;8.200002;;;;;;;-1.02;40.47852;96440.94;;;;
2022/03/21 02:01:28;;;;;;;13.6;8.200002;;;;;;;-1.02;40.47852;96440.94;;;;
2022/03/21 02:02:28;;;;;;;13.6;8.200002;;;;;;;-1.02;40.47852;96440.94;;;;
2022/03/21 02:03:29;;;;;;;13.6;10.45;;;;;;;-1.19;40.71582;96441.15;;;;
2022/03/21 02:04:30;;;;;;;13.6;10.45;;;;;;;-1.19;40.71582;96441.15;;;;
2022/03/21 02:05:31;;;;;;;13.6;10.45;;;;;;;-1.19;40.71582;96441.15;;;;
2022/03/21 02:06:33;;;;;;;13.6;10.45;;;;;;;-1.19;40.71582;96441.15;;;;
2022/03/21 02:07:34;;;;;;;13.6;10.45;;;;;;;-1.19;40.71582;96441.15;;;;
2022/03/21 02:08:35;;;;;;;13.6;10.45;;;;;;;-1.19;40.71582;96441.15;;;;
2022/03/21 02:09:35;;;;;;;13.6;10.45;;;;;;;-1.19;40.71582;96441.15;;;;
2022/03/21 02:10:36;;;;;;;13.6;10.45;;;;;;;-1.19;40.71582;96441.15;;;;
2022/03/21 02:11:37;;;;;;;13.6;10.45;;;;;;;-1.19;40.71582;96441.15;;;;
2022/03/21 02:12:38;;;;;;;13.6;10.45;;;;;;;-1.19;40.71582;96441.15;;;;
2022/03/21 02:13:39;;;;;;;12.65;10.35;;;;;;;-1.32;42.03809;96443.63;;;;
2022/03/21 02:14:40;;;;;;;12.65;10.35;;;;;;;-1.32;42.03809;96443.63;;;;
2022/03/21 02:15:41;;;;;;;12.65;10.35;;;;;;;-1.32;42.03809;96443.63;;;;
2022/03/21 02:16:41;;;;;;;12.65;10.35;;;;;;;-1.32;42.03809;96443.63;;;;
2022/03/21 02:17:42;;;;;;;12.65;10.35;;;;;;;-1.32;42.03809;96443.63;;;;
2022/03/21 02:18:45;;;;;;;12.65;10.35;;;;;;;-1.32;42.03809;96443.63;;;;
2022/03/21 02:19:47;;;;;;;12.65;10.35;;;;;;;-1.32;42.03809;96443.63;;;;
2022/03/21 02:20:50;;;;;;;12.65;10.35;;;;;;;-1.32;42.03809;96443.63;;;;
2022/03/21 02:21:53;;;;;;;12.65;10.35;;;;;;;-1.32;42.03809;96443.63;;;;
2022/03/21 02:23:07;;;;;;;12.65;10.35;;;;;;;-1.32;42.03809;96443.63;;;;
2022/03/21 02:24:16;;;;;;;14.5;10.85;;;;;;;-1.42;42.99414;96446.28;;;;
2022/03/21 02:25:25;;;;;;;14.5;10.85;;;;;;;-1.42;42.99414;96446.28;;;;
2022/03/21 02:26:29;;;;;;;14.5;10.85;;;;;;;-1.42;42.99414;96446.28;;;;
2022/03/21 02:27:31;;;;;;;14.5;10.85;;;;;;;-1.42;42.99414;96446.28;;;;
2022/03/21 02:28:33;;;;;;;14.5;10.85;;;;;;;-1.42;42.99414;96446.28;;;;
2022/03/21 02:29:34;;;;;;;14.5;10.85;;;;;;;-1.42;42.99414;96446.28;;;;
2022/03/21 02:30:36;;;;;;;14.5;10.85;;;;;;;-1.42;42.99414;96446.28;;;;
2022/03/21 02:31:39;;;;;;;14.5;10.85;;;;;;;-1.42;42.99414;96446.28;;;;
2022/03/21 02:32:40;;;;;;;14.5;10.85;;;;;;;-1.42;42.99414;96446.28;;;;
2022/03/21 02:33:42;;;;;;;14.5;10.85;;;;;;;-1.42;42.99414;96446.28;;;;
2022/03/21 02:34:43;;;;;;;13.05;10.8;;;;;;;-1.42;43.70801;96452;;;;
2022/03/21 02:35:45;;;;;;;13.05;10.8;;;;;;;-1.42;43.70801;96452;;;;
2022/03/21 02:36:49;;;;;;;13.05;10.8;;;;;;;-1.42;43.70801;96452;;;;
2022/03/21 02:37:51;;;;;;;13.05;10.8;;;;;;;-1.42;43.70801;96452;;;;
2022/03/21 02:38:54;;;;;;;13.05;10.8;;;;;;;-1.42;43.70801;96452;;;;
2022/03/21 02:39:57;;;;;;;13.05;10.8;;;;;;;-1.42;43.70801;96452;;;;
2022/03/21 02:40:59;;;;;;;13.05;10.8;;;;;;;-1.42;43.70801;96452;;;;
2022/03/21 02:41:59;;;;;;;13.05;10.8;;;;;;;-1.42;43.70801;96452;;;;
2022/03/21 02:43:01;;;;;;;13.05;10.8;;;;;;;-1.42;43.70801;96452;;;;
2022/03/21 02:44:02;;;;;;;13.05;10.8;;;;;;;-1.42;43.70801;96452;;;;
2022/03/21 02:45:03;;;;;;;13.05;10.8;;;;;;;-1.42;43.70801;96452;;;;
2022/03/21 02:46:05;;;;;;;13.25;10.95;;;;;;;-1.5;44.22363;96451.9;;;;
2022/03/21 02:47:05;;;;;;;13.25;10.95;;;;;;;-1.5;44.22363;96451.9;;;;
2022/03/21 02:48:08;;;;;;;13.25;10.95;;;;;;;-1.5;44.22363;96451.9;;;;
2022/03/21 02:49:09;;;;;;;13.25;10.95;;;;;;;-1.5;44.22363;96451.9;;;;
2022/03/21 02:50:09;;;;;;;13.25;10.95;;;;;;;-1.5;44.22363;96451.9;;;;
2022/03/21 02:51:16;;;;;;;13.25;10.95;;;;;;;-1.5;44.22363;96451.9;;;;
2022/03/21 02:52:19;;;;;;;13.25;10.95;;;;;;;-1.5;44.22363;96451.9;;;;
2022/03/21 02:53:22;;;;;;;13.25;10.95;;;;;;;-1.5;44.22363;96451.9;;;;
2022/03/21 02:54:26;;;;;;;13.25;10.95;;;;;;;-1.5;44.22363;96451.9;;;;
2022/03/21 02:55:27;;;;;;;13.25;10.95;;;;;;;-1.5;44.22363;96451.9;;;;
2022/03/21 02:56:28;;;;;;;14.5;10.6;;;;;;;-1.65;44.88086;96443.02;;;;
2022/03/21 02:57:31;;;;;;;14.5;10.6;;;;;;;-1.65;44.88086;96443.02;;;;
2022/03/21 02:58:31;;;;;;;14.5;10.6;;;;;;;-1.65;44.88086;96443.02;;;;
2022/03/21 02:59:32;;;;;;;14.5;10.6;;;;;;;-1.65;44.88086;96443.02;;;;
2022/03/21 03:00:33;;;;;;;14.5;10.6;;;;;;;-1.65;44.88086;96443.02;;;;
2022/03/21 03:01:33;;;;;;;14.5;10.6;;;;;;;-1.65;44.88086;96443.02;;;;
2022/03/21 03:02:33;;;;;;;14.5;10.6;;;;;;;-1.65;44.88086;96443.02;;;;
2022/03/21 03:03:34;;;;;;;14.5;10.6;;;;;;;-1.65;44.88086;96443.02;;;;
2022/03/21 03:04:35;;;;;;;14.5;10.6;;;;;;;-1.65;44.88086;96443.02;;;;
2022/03/21 03:05:35;;;;;;;14.5;10.6;;;;;;;-1.65;44.88086;96443.02;;;;
2022/03/21 03:06:39;;;;;;;14.5;10.6;;;;;;;-1.65;44.88086;96443.02;;;;
2022/03/21 03:07:40;;;;;;;13.9;11.1;;;;;;;-1.73;45.40723;96450.76;;;;
2022/03/21 03:08:40;;;;;;;13.9;11.1;;;;;;;-1.73;45.40723;96450.76;;;;
2022/03/21 03:09:42;;;;;;;13.9;11.1;;;;;;;-1.73;45.40723;96450.76;;;;
2022/03/21 03:10:43;;;;;;;13.9;11.1;;;;;;;-1.73;45.40723;96450.76;;;;
2022/03/21 03:11:43;;;;;;;13.9;11.1;;;;;;;-1.73;45.40723;96450.76;;;;
2022/03/21 03:12:44;;;;;;;13.9;11.1;;;;;;;-1.73;45.40723;96450.76;;;;
2022/03/21 03:13:44;;;;;;;13.9;11.1;;;;;;;-1.73;45.40723;96450.76;;;;
2022/03/21 03:14:45;;;;;;;13.9;11.1;;;;;;;-1.73;45.40723;96450.76;;;;
2022/03/21 03:15:47;;;;;;;13.9;11.1;;;;;;;-1.73;45.40723;96450.76;;;;
2022/03/21 03:16:48;;;;;;;13.9;11.1;;;;;;;-1.73;45.40723;96450.76;;;;
2022/03/21 03:17:48;;;;;;;13.4;10.75;;;;;;;-1.75;45.88672;96459.34;;;;
2022/03/21 03:18:49;;;;;;;13.4;10.75;;;;;;;-1.75;45.88672;96459.34;;;;
2022/03/21 03:19:49;;;;;;;13.4;10.75;;;;;;;-1.75;45.88672;96459.34;;;;
2022/03/21 03:20:50;;;;;;;13.4;10.75;;;;;;;-1.75;45.88672;96459.34;;;;
2022/03/21 03:21:53;;;;;;;13.4;10.75;;;;;;;-1.75;45.88672;96459.34;;;;
2022/03/21 03:22:55;;;;;;;13.4;10.75;;;;;;;-1.75;45.88672;96459.34;;;;
2022/03/21 03:23:59;;;;;;;13.4;10.75;;;;;;;-1.75;45.88672;96459.34;;;;
2022/03/21 03:25:02;;;;;;;13.4;10.75;;;;;;;-1.75;45.88672;96459.34;;;;
2022/03/21 03:26:04;;;;;;;13.4;10.75;;;;;;;-1.75;45.88672;96459.34;;;;
2022/03/21 03:27:05;;;;;;;13.4;10.75;;;;;;;-1.75;45.88672;96459.34;;;;
2022/03/21 03:28:06;;;;;;;14.5;10.95;;;;;;;-1.76;46.2207;96460.78;;;;
2022/03/21 03:29:06;;;;;;;14.5;10.95;;;;;;;-1.76;46.2207;96460.78;;;;
2022/03/21 03:30:07;;;;;;;14.5;10.95;;;;;;;-1.76;46.2207;96460.78;;;;
2022/03/21 03:31:09;;;;;;;14.5;10.95;;;;;;;-1.76;46.2207;96460.78;;;;
2022/03/21 03:32:10;;;;;;;14.5;10.95;;;;;;;-1.76;46.2207;96460.78;;;;
2022/03/21 03:33:10;;;;;;;14.5;10.95;;;;;;;-1.76;46.2207;96460.78;;;;
2022/03/21 03:34:11;;;;;;;14.5;10.95;;;;;;;-1.76;46.2207;96460.78;;;;
2022/03/21 03:35:12;;;;;;;14.5;10.95;;;;;;;-1.76;46.2207;96460.78;;;;
2022/03/21 03:36:13;;;;;;;14.5;10.95;;;;;;;-1.76;46.2207;96460.78;;;;
2022/03/21 03:37:16;;;;;;;14.5;10.95;;;;;;;-1.76;46.2207;96460.78;;;;
2022/03/21 03:38:17;;;;;;;14.5;10.95;;;;;;;-1.76;46.2207;96460.78;;;;
2022/03/21 03:39:18;;;;;;;13.9;10.45;;;;;;;-1.83;46.54883;96467.1;;;;
2022/03/21 03:40:19;;;;;;;13.9;10.45;;;;;;;-1.83;46.54883;96467.1;;;;
2022/03/21 03:41:20;;;;;;;13.9;10.45;;;;;;;-1.83;46.54883;96467.1;;;;
2022/03/21 03:42:21;;;;;;;13.9;10.45;;;;;;;-1.83;46.54883;96467.1;;;;
2022/03/21 03:43:21;;;;;;;13.9;10.45;;;;;;;-1.83;46.54883;96467.1;;;;
2022/03/21 03:44:23;;;;;;;13.9;10.45;;;;;;;-1.83;46.54883;96467.1;;;;
2022/03/21 03:45:25;;;;;;;13.9;10.45;;;;;;;-1.83;46.54883;96467.1;;;;
2022/03/21 03:46:25;;;;;;;13.9;10.45;;;;;;;-1.83;46.54883;96467.1;;;;
2022/03/21 03:47:26;;;;;;;13.9;10.45;;;;;;;-1.83;46.54883;96467.1;;;;
2022/03/21 03:48:28;;;;;;;13.9;10.45;;;;;;;-1.83;46.54883;96467.1;;;;
2022/03/21 03:49:28;;;;;;;14.85;10.7;;;;;;;-1.89;46.9082;96462.83;;;;
2022/03/21 03:50:29;;;;;;;14.85;10.7;;;;;;;-1.89;46.9082;96462.83;;;;
2022/03/21 03:51:30;;;;;;;14.85;10.7;;;;;;;-1.89;46.9082;96462.83;;;;
2022/03/21 03:52:31;;;;;;;14.85;10.7;;;;;;;-1.89;46.9082;96462.83;;;;
2022/03/21 03:53:31;;;;;;;14.85;10.7;;;;;;;-1.89;46.9082;96462.83;;;;
2022/03/21 03:54:32;;;;;;;14.85;10.7;;;;;;;-1.89;46.9082;96462.83;;;;
2022/03/21 03:55:32;;;;;;;14.85;10.7;;;;;;;-1.89;46.9082;96462.83;;;;
2022/03/21 03:56:33;;;;;;;14.85;10.7;;;;;;;-1.89;46.9082;96462.83;;;;
2022/03/21 03:57:33;;;;;;;14.85;10.7;;;;;;;-1.89;46.9082;96462.83;;;;
2022/03/21 03:58:34;;;;;;;14.85;10.7;;;;;;;-1.89;46.9082;96462.83;;;;
2022/03/21 03:59:36;;;;;;;14.85;10.7;;;;;;;-1.89;46.9082;96462.83;;;;
2022/03/21 04:00:36;;;;;;;14.8;10.5;;;;;;;-1.94;47.29004;96466.75;;;;
2022/03/21 04:01:37;;;;;;;14.8;10.5;;;;;;;-1.94;47.29004;96466.75;;;;
2022/03/21 04:03:44;;;;;;;14.8;10.5;;;;;;;-1.94;47.29004;96466.75;;;;
2022/03/21 04:04:45;;;;;;;14.8;10.5;;;;;;;-1.94;47.29004;96466.75;;;;
2022/03/21 04:05:45;;;;;;;14.8;10.5;;;;;;;-1.94;47.29004;96466.75;;;;
2022/03/21 04:06:46;;;;;;;14.8;10.5;;;;;;;-1.94;47.29004;96466.75;;;;
2022/03/21 04:07:46;;;;;;;14.8;10.5;;;;;;;-1.94;47.29004;96466.75;;;;
2022/03/21 04:08:47;;;;;;;14.8;10.5;;;;;;;-1.94;47.29004;96466.75;;;;
2022/03/21 04:09:50;;;;;;;14.8;10.5;;;;;;;-1.94;47.29004;96466.75;;;;
2022/03/21 04:10:51;;;;;;;12.9;10.75;;;;;;;-1.99;47.66113;96466.78;;;;
2022/03/21 04:11:51;;;;;;;12.9;10.75;;;;;;;-1.99;47.66113;96466.78;;;;
2022/03/21 04:12:52;;;;;;;12.9;10.75;;;;;;;-1.99;47.66113;96466.78;;;;
2022/03/21 04:13:53;;;;;;;12.9;10.75;;;;;;;-1.99;47.66113;96466.78;;;;
2022/03/21 04:14:54;;;;;;;12.9;10.75;;;;;;;-1.99;47.66113;96466.78;;;;
2022/03/21 04:15:54;;;;;;;12.9;10.75;;;;;;;-1.99;47.66113;96466.78;;;;
2022/03/21 04:16:55;;;;;;;12.9;10.75;;;;;;;-1.99;47.66113;96466.78;;;;
2022/03/21 04:17:56;;;;;;;12.9;10.75;;;;;;;-1.99;47.66113;96466.78;;;;
2022/03/21 04:18:58;;;;;;;12.9;10.75;;;;;;;-1.99;47.66113;96466.78;;;;
2022/03/21 04:19:59;;;;;;;12.9;10.75;;;;;;;-1.99;47.66113;96466.78;;;;
2022/03/21 04:20:59;;;;;;;12.9;10.75;;;;;;;-1.99;47.66113;96466.78;;;;
2022/03/21 04:22:00;;;;;;;13.6;9.049999;;;;;;;-2.04;47.99219;96471.15;;;;
2022/03/21 04:23:00;;;;;;;13.6;9.049999;;;;;;;-2.04;47.99219;96471.15;;;;
2022/03/21 04:24:02;;;;;;;13.6;9.049999;;;;;;;-2.04;47.99219;96471.15;;;;
2022/03/21 04:25:03;;;;;;;13.6;9.049999;;;;;;;-2.04;47.99219;96471.15;;;;
2022/03/21 04:26:06;;;;;;;13.6;9.049999;;;;;;;-2.04;47.99219;96471.15;;;;
2022/03/21 04:27:06;;;;;;;13.6;9.049999;;;;;;;-2.04;47.99219;96471.15;;;;
2022/03/21 04:28:07;;;;;;;13.6;9.049999;;;;;;;-2.04;47.99219;96471.15;;;;
2022/03/21 04:29:08;;;;;;;13.6;9.049999;;;;;;;-2.04;47.99219;96471.15;;;;
2022/03/21 04:30:08;;;;;;;13.6;9.049999;;;;;;;-2.04;47.99219;96471.15;;;;
2022/03/21 04:31:10;;;;;;;13.6;9.049999;;;;;;;-2.04;47.99219;96471.15;;;;
2022/03/21 04:32:11;;;;;;;14.2;10.8;;;;;;;-2.06;47.36133;96478.81;;;;
2022/03/21 04:33:12;;;;;;;14.2;10.8;;;;;;;-2.06;47.36133;96478.81;;;;
2022/03/21 04:34:12;;;;;;;14.2;10.8;;;;;;;-2.06;47.36133;96478.81;;;;
2022/03/21 04:35:13;;;;;;;14.2;10.8;;;;;;;-2.06;47.36133;96478.81;;;;
2022/03/21 04:36:14;;;;;;;14.2;10.8;;;;;;;-2.06;47.36133;96478.81;;;;
2022/03/21 04:37:15;;;;;;;14.2;10.8;;;;;;;-2.06;47.36133;96478.81;;;;
2022/03/21 04:38:17;;;;;;;14.2;10.8;;;;;;;-2.06;47.36133;96478.81;;;;
2022/03/21 04:39:17;;;;;;;14.2;10.8;;;;;;;-2.06;47.36133;96478.81;;;;
2022/03/21 04:40:18;;;;;;;14.2;10.8;;;;;;;-2.06;47.36133;96478.81;;;;
2022/03/21 04:41:18;;;;;;;14.2;10.8;;;;;;;-2.06;47.36133;96478.81;;;;
2022/03/21 04:42:19;;;;;;;14.2;10.8;;;;;;;-2.06;47.36133;96478.81;;;;
2022/03/21 04:43:20;;;;;;;14;11.15;;;;;;;-2.23;47.91797;96495.67;;;;
2022/03/21 04:44:20;;;;;;;14;11.15;;;;;;;-2.23;47.91797;96495.67;;;;
2022/03/21 04:45:21;;;;;;;14;11.15;;;;;;;-2.23;47.91797;96495.67;;;;
2022/03/21 04:46:21;;;;;;;14;11.15;;;;;;;-2.23;47.91797;96495.67;;;;
2022/03/21 04:47:22;;;;;;;14;11.15;;;;;;;-2.23;47.91797;96495.67;;;;
2022/03/21 04:48:22;;;;;;;14;11.15;;;;;;;-2.23;47.91797;96495.67;;;;
2022/03/21 04:49:23;;;;;;;14;11.15;;;;;;;-2.23;47.91797;96495.67;;;;
2022/03/21 04:50:23;;;;;;;14;11.15;;;;;;;-2.23;47.91797;96495.67;;;;
2022/03/21 04:51:24;;;;;;;14;11.15;;;;;;;-2.23;47.91797;96495.67;;;;
2022/03/21 04:52:25;;;;;;;14;11.15;;;;;;;-2.23;47.91797;96495.67;;;;
2022/03/21 04:53:25;;;;;;;14.3;11.05;;;;;;;-2.37;48.46582;96496.89;;;;
2022/03/21 04:54:27;;;;;;;14.3;11.05;;;;;;;-2.37;48.46582;96496.89;;;;
2022/03/21 04:55:28;;;;;;;14.3;11.05;;;;;;;-2.37;48.46582;96496.89;;;;
2022/03/21 04:56:28;;;;;;;14.3;11.05;;;;;;;-2.37;48.46582;96496.89;;;;
2022/03/21 04:57:29;;;;;;;14.3;11.05;;;;;;;-2.37;48.46582;96496.89;;;;
2022/03/21 04:58:30;;;;;;;14.3;11.05;;;;;;;-2.37;48.46582;96496.89;;;;
2022/03/21 04:59:30;;;;;;;14.3;11.05;;;;;;;-2.37;48.46582;96496.89;;;;
2022/03/21 05:00:31;;;;;;;14.3;11.05;;;;;;;-2.37;48.46582;96496.89;;;;
2022/03/21 05:01:32;;;;;;;14.3;11.05;;;;;;;-2.37;48.46582;96496.89;;;;
2022/03/21 05:02:32;;;;;;;14.3;11.05;;;;;;;-2.37;48.46582;96496.89;;;;
2022/03/21 05:03:33;;;;;;;14.3;11.05;;;;;;;-2.37;48.46582;96496.89;;;;
2022/03/21 05:04:34;;;;;;;14.75;10.9;;;;;;;-2.46;48.88477;96504.74;;;;
2022/03/21 05:05:35;;;;;;;14.75;10.9;;;;;;;-2.46;48.88477;96504.74;;;;
2022/03/21 05:06:36;;;;;;;14.75;10.9;;;;;;;-2.46;48.88477;96504.74;;;;
2022/03/21 05:07:36;;;;;;;14.75;10.9;;;;;;;-2.46;48.88477;96504.74;;;;
2022/03/21 05:08:39;;;;;;;14.75;10.9;;;;;;;-2.46;48.88477;96504.74;;;;
2022/03/21 05:09:40;;;;;;;14.75;10.9;;;;;;;-2.46;48.88477;96504.74;;;;
2022/03/21 05:10:42;;;;;;;14.75;10.9;;;;;;;-2.46;48.88477;96504.74;;;;
2022/03/21 05:11:43;;;;;;;14.75;10.9;;;;;;;-2.46;48.88477;96504.74;;;;
2022/03/21 05:12:43;;;;;;;14.75;10.9;;;;;;;-2.46;48.88477;96504.74;;;;
2022/03/21 05:13:44;;;;;;;14.75;10.9;;;;;;;-2.46;48.88477;96504.74;;;;
2022/03/21 05:14:44;;;;;;;16.5;11.7;;;;;;;-2.52;49.27539;96523.3;;;;
2022/03/21 05:15:45;;;;;;;16.5;11.7;;;;;;;-2.52;49.27539;96523.3;;;;
2022/03/21 05:16:45;;;;;;;16.5;11.7;;;;;;;-2.52;49.27539;96523.3;;;;
2022/03/21 05:17:46;;;;;;;16.5;11.7;;;;;;;-2.52;49.27539;96523.3;;;;
2022/03/21 05:18:48;;;;;;;16.5;11.7;;;;;;;-2.52;49.27539;96523.3;;;;
2022/03/21 05:19:49;;;;;;;16.5;11.7;;;;;;;-2.52;49.27539;96523.3;;;;
2022/03/21 05:20:49;;;;;;;16.5;11.7;;;;;;;-2.52;49.27539;96523.3;;;;
2022/03/21 05:21:50;;;;;;;16.5;11.7;;;;;;;-2.52;49.27539;96523.3;;;;
2022/03/21 05:30:57;;;;;;;16.5;11.7;;;;;;;-2.52;49.27539;96523.3;;;;
2022/03/21 05:31:57;;;;;;;16.5;11.7;;;;;;;-2.52;49.27539;96523.3;;;;
2022/03/21 05:38:09;;;;;;;19.05;12.3;;;;;;;-2.43;49.77734;96534.44;;;;
2022/03/21 05:39:10;;;;;;;19.05;12.3;;;;;;;-2.43;49.77734;96534.44;;;;
2022/03/21 05:40:42;;;;;;;19.05;12.3;;;;;;;-2.43;49.77734;96534.44;;;;
2022/03/21 05:41:43;;;;;;;19.05;12.3;;;;;;;-2.43;49.77734;96534.44;;;;
2022/03/21 05:42:43;;;;;;;19.05;12.3;;;;;;;-2.43;49.77734;96534.44;;;;
2022/03/21 05:43:44;;;;;;;19.05;12.3;;;;;;;-2.43;49.77734;96534.44;;;;
2022/03/21 05:44:44;;;;;;;19.05;12.3;;;;;;;-2.43;49.77734;96534.44;;;;
2022/03/21 05:45:44;;;;;;;19.05;12.3;;;;;;;-2.43;49.77734;96534.44;;;;
2022/03/21 05:46:45;;;;;;;15.4;11.75;;;;;;;-2.22;49.89648;96543.23;;;;
2022/03/21 05:52:45;;;;;;;15.4;11.75;;;;;;;-2.22;49.89648;96543.23;;;;
2022/03/21 05:53:45;;;;;;;15.4;11.75;;;;;;;-2.22;49.89648;96543.23;;;;
2022/03/21 05:54:46;;;;;;;15.4;11.75;;;;;;;-2.22;49.89648;96543.23;;;;
2022/03/21 05:55:46;;;;;;;15.4;11.75;;;;;;;-2.22;49.89648;96543.23;;;;
2022/03/21 05:56:47;;;;;;;15.4;11.75;;;;;;;-2.22;49.89648;96543.23;;;;
2022/03/21 05:57:47;;;;;;;17.5;9.15;;;;;;;-1.85;49.87695;96535.67;;;;
2022/03/21 05:58:48;;;;;;;17.5;9.15;;;;;;;-1.85;49.87695;96535.67;;;;
2022/03/21 06:00:20;;;;;;;17.5;9.15;;;;;;;-1.85;49.87695;96535.67;;;;
2022/03/21 06:01:22;;;;;;;17.5;9.15;;;;;;;-1.85;49.87695;96535.67;;;;
2022/03/21 06:02:23;;;;;;;17.5;9.15;;;;;;;-1.85;49.87695;96535.67;;;;
2022/03/21 06:03:24;;;;;;;17.5;9.15;;;;;;;-1.85;49.87695;96535.67;;;;
2022/03/21 06:04:25;;;;;;;17.5;9.15;;;;;;;-1.85;49.87695;96535.67;;;;
2022/03/21 06:05:26;;;;;;;17.5;9.15;;;;;;;-1.85;49.87695;96535.67;;;;
2022/03/21 06:06:27;;;;;;;17.5;9.15;;;;;;;-1.85;49.87695;96535.67;;;;
2022/03/21 06:07:27;;;;;;;17.5;9.15;;;;;;;-1.85;49.87695;96535.67;;;;
2022/03/21 06:08:28;;;;;;;16.9;8.95;;;;;;;-1.29;48.9248;96544.05;;;;